Time;durP1;ratioP1;P1;durP2;ratioP2;P2;SDS_P1;SDS_P2;PMS_P1;PMS_P2;Temp;Humidity;BMP_temperature;BMP_pressure;BME280_temperature;BME280_humidity;BME280_pressure;Samples;Min_cycle;Max_cycle;Signal;HPM_P1;HPM_P2
2023/05/19 00:00:18;;;;;;;;;;;;;;;21.15;60.30;97075.43;620143;229;64862;-58
2023/05/19 00:02:46;;;;;;;;;;;;;;;21.15;61.27;97080.77;620148;229;67621;-58
2023/05/19 00:05:17;;;;;;;;;;;;;;;21.15;60.71;97078.89;620149;229;64602;-59
2023/05/19 00:07:44;;;;;;;;;;;;;;;21.14;60.62;97079.16;620147;229;65158;-59
2023/05/19 00:10:12;;;;;;;;;;;;;;;21.14;60.91;97073.81;620162;229;67132;-59
2023/05/19 00:12:40;;;;;;;;;;;;;;;21.14;61.12;97076.48;620191;227;67085;-59
2023/05/19 00:15:08;;;;;;;;;;;;;;;21.13;61.32;97077.56;620196;229;65060;-59
2023/05/19 00:17:37;;;;;;;;;;;;;;;21.13;60.68;97077.56;620152;229;67176;-59
2023/05/19 00:20:06;;;;;;;;;;;;;;;21.13;60.57;97077.56;620217;229;67126;-59
2023/05/19 00:22:33;;;;;;;;;;;;;;;21.12;60.41;97073.30;620145;229;64952;-59
2023/05/19 00:25:01;;;;;;;;;;;;;;;21.11;60.86;97072.47;620145;229;65060;-59
2023/05/19 00:27:29;;;;;;;;;;;;;;;21.13;60.74;97082.91;620230;228;64883;-59
2023/05/19 00:29:56;;;;;;;;;;;;;;;21.11;62.21;97069.80;620222;229;64957;-59
2023/05/19 00:32:24;;;;;;;;;;;;;;;21.11;60.79;97072.47;620115;229;67949;-59
2023/05/19 00:34:51;;;;;;;;;;;;;;;21.11;61.63;97080.49;620104;229;67949;-61
2023/05/19 00:37:19;;;;;;;;;;;;;;;21.11;60.85;97077.02;620177;229;64953;-61
2023/05/19 00:39:46;;;;;;;;;;;;;;;21.10;60.43;97076.23;620213;229;67768;-61
2023/05/19 00:42:14;;;;;;;;;;;;;;;21.10;61.97;97078.91;620203;229;67664;-61
2023/05/19 00:44:41;;;;;;;;;;;;;;;21.10;60.94;97080.78;620144;229;62484;-61
2023/05/19 00:47:09;;;;;;;;;;;;;;;21.10;61.04;97084.25;620186;229;64820;-64
2023/05/19 00:49:37;;;;;;;;;;;;;;;21.10;61.76;97088.80;620203;229;65473;-61
2023/05/19 00:52:06;;;;;;;;;;;;;;;21.10;60.32;97091.47;619826;228;63533;-62
2023/05/19 00:54:34;;;;;;;;;;;;;;;21.08;59.94;97083.70;620072;229;67208;-61
2023/05/19 00:57:03;;;;;;;;;;;;;;;21.09;61.10;97088.00;620175;229;65000;-61
2023/05/19 00:59:30;;;;;;;;;;;;;;;21.08;60.52;97081.03;620171;229;65874;-61
2023/05/19 01:01:58;;;;;;;;;;;;;;;21.09;60.98;97093.34;620079;229;67729;-61
2023/05/19 01:04:25;;;;;;;;;;;;;;;21.08;60.81;97086.38;620169;229;67224;-61
2023/05/19 01:06:53;;;;;;;;;;;;;;;21.08;60.60;97088.26;620166;229;63546;-61
2023/05/19 01:09:21;;;;;;;;;;;;;;;21.08;60.83;97085.59;620250;229;66791;-61
2023/05/19 01:11:51;;;;;;;;;;;;;;;21.08;61.25;97090.92;620105;229;66873;-61
2023/05/19 01:14:19;;;;;;;;;;;;;;;21.07;60.98;97095.48;619860;227;65110;-61
2023/05/19 01:17:06;;;;;;;;;;;;;;;21.06;60.72;97094.68;620133;229;67453;-61
2023/05/19 01:19:55;;;;;;;;;;;;;;;21.06;61.11;97099.20;603907;233;67874;-61
2023/05/19 01:22:24;;;;;;;;;;;;;;;21.05;61.49;97098.41;602130;233;62770;-61
2023/05/19 01:25:15;;;;;;;;;;;;;;;21.05;60.89;97090.39;610448;228;67282;-61
2023/05/19 01:27:56;;;;;;;;;;;;;;;21.04;60.96;97102.16;619712;229;67268;-61
2023/05/19 01:30:24;;;;;;;;;;;;;;;21.04;62.11;97096.81;620229;229;65982;-61
2023/05/19 01:32:56;;;;;;;;;;;;;;;21.03;61.77;97100.56;620170;229;64711;-61
2023/05/19 01:35:24;;;;;;;;;;;;;;;21.04;61.46;97107.50;620023;229;67861;-58
2023/05/19 01:37:54;;;;;;;;;;;;;;;21.03;60.86;97105.09;620091;229;62894;-58
2023/05/19 01:40:22;;;;;;;;;;;;;;;21.02;61.23;97104.29;620102;229;67050;-58
2023/05/19 01:42:52;;;;;;;;;;;;;;;21.02;61.66;97106.96;620179;229;67449;-58
2023/05/19 01:45:20;;;;;;;;;;;;;;;21.02;61.18;97103.49;620124;229;65775;-58
2023/05/19 01:47:49;;;;;;;;;;;;;;;21.02;60.40;97106.96;620152;229;67179;-58
2023/05/19 01:50:16;;;;;;;;;;;;;;;21.02;60.49;97106.16;620135;228;65656;-58
2023/05/19 01:52:44;;;;;;;;;;;;;;;21.02;60.56;97101.62;620137;229;64926;-60
2023/05/19 01:55:11;;;;;;;;;;;;;;;21.02;62.04;97104.29;620129;229;65800;-60
2023/05/19 01:57:41;;;;;;;;;;;;;;;21.01;61.08;97102.70;620122;229;64045;-60
2023/05/19 02:00:16;;;;;;;;;;;;;;;21.01;62.04;97105.37;620281;228;65046;-62
2023/05/19 02:02:48;;;;;;;;;;;;;;;21.01;60.49;97110.72;620038;229;66918;-62
2023/05/19 02:05:18;;;;;;;;;;;;;;;21.02;61.73;97114.18;619987;229;67035;-61
2023/05/19 02:07:47;;;;;;;;;;;;;;;21.00;61.21;97117.11;619964;229;64884;-61
2023/05/19 02:10:16;;;;;;;;;;;;;;;21.00;61.72;97117.11;619305;229;67885;-61
2023/05/19 02:12:45;;;;;;;;;;;;;;;21.00;61.98;97127.00;619406;229;67701;-61
2023/05/19 02:15:14;;;;;;;;;;;;;;;20.98;61.93;97124.61;616986;230;63002;-61
2023/05/19 02:17:50;;;;;;;;;;;;;;;21.00;62.34;97127.00;616706;230;66874;-61
2023/05/19 02:20:13;;;;;;;;;;;;;;;20.99;62.34;97123.53;616677;230;65860;-61
2023/05/19 02:22:41;;;;;;;;;;;;;;;20.98;62.08;97124.61;616765;230;65072;-60
2023/05/19 02:25:09;;;;;;;;;;;;;;;20.98;61.46;97127.28;616994;230;66939;-60
2023/05/19 02:27:37;;;;;;;;;;;;;;;20.97;61.51;97128.34;616773;230;67020;-60
2023/05/19 02:30:05;;;;;;;;;;;;;;;20.98;61.93;97123.78;616794;230;62739;-60
2023/05/19 02:32:33;;;;;;;;;;;;;;;20.98;61.95;97126.45;616802;230;67480;-60
2023/05/19 02:35:01;;;;;;;;;;;;;;;20.96;61.18;97132.09;616642;230;66935;-60
2023/05/19 02:37:29;;;;;;;;;;;;;;;20.97;61.42;97133.67;616824;229;63038;-60
2023/05/19 02:39:57;;;;;;;;;;;;;;;20.97;61.52;97138.23;616817;230;67000;-60
2023/05/19 02:42:25;;;;;;;;;;;;;;;20.96;60.89;97144.65;616823;230;67612;-60
2023/05/19 02:44:54;;;;;;;;;;;;;;;20.96;61.32;97142.77;616805;230;62904;-60
2023/05/19 02:47:21;;;;;;;;;;;;;;;20.96;62.05;97145.45;616917;230;67995;-61
2023/05/19 02:49:49;;;;;;;;;;;;;;;20.96;62.16;97148.11;616871;230;64656;-61
2023/05/19 02:52:16;;;;;;;;;;;;;;;20.95;61.47;97159.88;616655;230;65194;-61
2023/05/19 02:54:44;;;;;;;;;;;;;;;20.94;62.25;97152.92;616620;230;67106;-61
2023/05/19 02:57:11;;;;;;;;;;;;;;;20.95;62.30;97156.38;616919;230;67849;-61
2023/05/19 02:59:39;;;;;;;;;;;;;;;20.95;63.35;97154.54;616878;230;65154;-61
2023/05/19 03:02:07;;;;;;;;;;;;;;;20.94;61.65;97150.24;616812;230;65651;-61
2023/05/19 03:04:40;;;;;;;;;;;;;;;20.94;61.78;97158.26;616915;230;66913;-61
2023/05/19 03:07:05;;;;;;;;;;;;;;;20.95;63.09;97157.21;616393;230;65321;-61
2023/05/19 03:09:32;;;;;;;;;;;;;;;20.94;63.19;97158.26;616844;230;67211;-61
2023/05/19 03:12:02;;;;;;;;;;;;;;;20.93;60.98;97162.02;616848;230;66791;-61
2023/05/19 03:14:29;;;;;;;;;;;;;;;20.92;62.00;97163.06;623443;227;63639;-61
2023/05/19 03:16:58;;;;;;;;;;;;;;;20.93;61.51;97169.23;624519;227;64996;-61
2023/05/19 03:19:26;;;;;;;;;;;;;;;20.94;62.84;97170.82;624618;227;65966;-61
2023/05/19 03:21:55;;;;;;;;;;;;;;;20.92;61.74;97168.41;624560;227;65344;-61
2023/05/19 03:24:22;;;;;;;;;;;;;;;20.92;62.04;97173.75;624558;227;67202;-61
2023/05/19 03:26:50;;;;;;;;;;;;;;;20.92;62.05;97175.63;624597;227;68064;-61
2023/05/19 03:29:18;;;;;;;;;;;;;;;20.92;62.67;97180.97;624253;227;62998;-61
2023/05/19 03:31:46;;;;;;;;;;;;;;;20.91;62.25;97176.70;624592;227;65933;-61
2023/05/19 03:34:14;;;;;;;;;;;;;;;20.90;62.19;97175.91;624614;227;67437;-59
2023/05/19 03:36:43;;;;;;;;;;;;;;;20.91;62.56;97174.83;624586;227;65986;-59
2023/05/19 03:39:13;;;;;;;;;;;;;;;20.91;62.75;97180.17;624652;227;45389;-61
2023/05/19 03:41:40;;;;;;;;;;;;;;;20.90;62.39;97173.23;624714;227;64486;-61
2023/05/19 03:44:08;;;;;;;;;;;;;;;20.89;62.58;97174.28;624493;227;65195;-61
2023/05/19 03:46:35;;;;;;;;;;;;;;;20.89;62.27;97178.83;624548;227;65562;-62
2023/05/19 03:49:10;;;;;;;;;;;;;;;20.90;63.21;97183.09;624289;227;44241;-62
2023/05/19 03:51:57;;;;;;;;;;;;;;;20.88;63.18;97183.38;624439;227;40333;-60
2023/05/19 03:54:29;;;;;;;;;;;;;;;20.87;62.46;97187.13;624612;227;44375;-60
2023/05/19 03:56:57;;;;;;;;;;;;;;;20.88;64.12;97175.36;624118;227;64668;-60
2023/05/19 03:59:24;;;;;;;;;;;;;;;20.87;62.10;97176.44;624304;227;62650;-60
2023/05/19 04:01:52;;;;;;;;;;;;;;;20.86;62.31;97174.81;624643;227;67303;-62
2023/05/19 04:04:20;;;;;;;;;;;;;;;20.87;62.43;97179.11;624604;227;66983;-61
2023/05/19 04:06:48;;;;;;;;;;;;;;;20.87;62.85;97181.78;624611;227;65087;-61
2023/05/19 04:09:15;;;;;;;;;;;;;;;20.86;61.17;97193.52;624406;227;67222;-61
2023/05/19 04:11:43;;;;;;;;;;;;;;;20.86;62.91;97196.19;624318;227;64784;-61
2023/05/19 04:14:11;;;;;;;;;;;;;;;20.87;62.71;97194.31;624596;227;65927;-61
2023/05/19 04:16:38;;;;;;;;;;;;;;;20.87;61.71;97194.31;624573;227;68395;-61
2023/05/19 04:19:06;;;;;;;;;;;;;;;20.85;62.52;97199.94;624521;227;66995;-62
2023/05/19 04:21:35;;;;;;;;;;;;;;;20.86;63.08;97198.06;624472;227;65610;-62
2023/05/19 04:24:05;;;;;;;;;;;;;;;20.86;62.89;97200.73;624179;227;67045;-63
2023/05/19 04:26:33;;;;;;;;;;;;;;;20.85;62.07;97207.95;624653;227;66787;-62
2023/05/19 04:29:03;;;;;;;;;;;;;;;20.84;62.38;97203.66;624577;227;62873;-62
2023/05/19 04:31:34;;;;;;;;;;;;;;;20.84;62.41;97209.00;624661;227;64673;-62
2023/05/19 04:34:02;;;;;;;;;;;;;;;20.83;62.50;97213.55;623500;227;65094;-62
2023/05/19 04:36:30;;;;;;;;;;;;;;;20.84;62.81;97209.00;619400;228;64946;-62
2023/05/19 04:39:01;;;;;;;;;;;;;;;20.83;64.19;97205.53;620204;228;66019;-63
2023/05/19 04:41:27;;;;;;;;;;;;;;;20.83;62.68;97204.73;622981;227;67040;-61
2023/05/19 04:43:56;;;;;;;;;;;;;;;20.82;63.33;97211.95;624238;227;64939;-61
2023/05/19 04:46:24;;;;;;;;;;;;;;;20.83;62.33;97208.20;624596;227;68621;-62
2023/05/19 04:48:55;;;;;;;;;;;;;;;20.82;62.76;97205.81;624363;227;66790;-62
2023/05/19 04:51:26;;;;;;;;;;;;;;;20.82;62.43;97211.16;622550;227;65039;-61
2023/05/19 04:53:53;;;;;;;;;;;;;;;20.82;63.19;97211.16;620081;227;66965;-63
2023/05/19 04:56:20;;;;;;;;;;;;;;;20.82;62.74;97211.16;624281;227;67058;-61
2023/05/19 04:58:48;;;;;;;;;;;;;;;20.81;62.97;97221.02;624652;227;62887;-62
2023/05/19 05:01:16;;;;;;;;;;;;;;;20.82;62.89;97221.84;624658;227;65339;-61
2023/05/19 05:03:44;;;;;;;;;;;;;;;20.80;61.28;97224.77;624572;227;65091;-61
2023/05/19 05:06:11;;;;;;;;;;;;;;;20.81;63.92;97221.02;624562;227;64983;-62
2023/05/19 05:08:40;;;;;;;;;;;;;;;20.80;62.07;97226.64;624496;227;67240;-61
2023/05/19 05:11:08;;;;;;;;;;;;;;;20.80;62.35;97231.98;624637;227;67078;-61
2023/05/19 05:13:36;;;;;;;;;;;;;;;20.81;63.18;97225.56;615914;229;65161;-61
2023/05/19 05:16:05;;;;;;;;;;;;;;;20.81;63.00;97214.88;616834;229;67384;-61
2023/05/19 05:18:33;;;;;;;;;;;;;;;20.78;61.57;97221.55;616790;229;64494;-63
2023/05/19 05:21:01;;;;;;;;;;;;;;;20.79;63.72;97223.17;616614;229;62714;-63
2023/05/19 05:23:29;;;;;;;;;;;;;;;20.79;62.96;97222.38;616307;229;67161;-63
2023/05/19 05:25:57;;;;;;;;;;;;;;;20.79;63.09;97223.17;616594;229;64665;-63
2023/05/19 05:28:25;;;;;;;;;;;;;;;20.78;62.22;97221.55;615909;229;65538;-62
2023/05/19 05:30:55;;;;;;;;;;;;;;;20.78;62.52;97221.55;616823;229;64626;-62
2023/05/19 05:33:23;;;;;;;;;;;;;;;20.78;62.24;97220.75;616698;229;64412;-62
2023/05/19 05:35:52;;;;;;;;;;;;;;;20.78;63.09;97221.55;613763;229;66142;-63
2023/05/19 05:38:21;;;;;;;;;;;;;;;20.78;63.01;97221.55;616061;229;65087;-63
2023/05/19 05:40:50;;;;;;;;;;;;;;;20.77;63.10;97222.62;616089;229;64723;-61
2023/05/19 05:43:18;;;;;;;;;;;;;;;20.78;61.84;97226.09;616436;229;65003;-61
2023/05/19 05:45:47;;;;;;;;;;;;;;;20.78;62.78;97231.44;616174;229;44498;-61
2023/05/19 05:48:15;;;;;;;;;;;;;;;20.78;63.61;97239.45;615886;229;64991;-61
2023/05/19 05:50:49;;;;;;;;;;;;;;;20.77;62.94;97233.30;615767;229;65712;-63
2023/05/19 05:53:18;;;;;;;;;;;;;;;20.76;61.67;97236.23;617024;229;43319;-62
2023/05/19 05:55:47;;;;;;;;;;;;;;;20.76;63.20;97239.73;616738;229;67382;-63
2023/05/19 05:58:15;;;;;;;;;;;;;;;20.77;63.23;97240.52;616659;229;65856;-62
2023/05/19 06:00:44;;;;;;;;;;;;;;;20.76;62.26;97236.23;616835;229;67263;-62
2023/05/19 06:03:12;;;;;;;;;;;;;;;20.75;63.20;97235.43;617293;229;66836;-62
2023/05/19 06:05:39;;;;;;;;;;;;;;;20.76;63.56;97242.39;616725;229;63637;-62
2023/05/19 06:08:08;;;;;;;;;;;;;;;20.75;62.42;97231.96;613627;229;66596;-61
2023/05/19 06:10:37;;;;;;;;;;;;;;;20.73;61.43;97240.23;615878;228;64106;-62
2023/05/19 06:13:07;;;;;;;;;;;;;;;20.76;62.47;97249.58;617418;228;65192;-62
2023/05/19 06:15:36;;;;;;;;;;;;;;;20.75;61.13;97242.64;621444;228;44262;-62
2023/05/19 06:18:05;;;;;;;;;;;;;;;20.76;62.71;97241.56;625817;226;45430;-65
2023/05/19 06:20:33;;;;;;;;;;;;;;;20.75;63.15;97247.98;626140;226;65037;-66
2023/05/19 06:23:02;;;;;;;;;;;;;;;20.76;64.35;97245.06;626127;226;65493;-67
2023/05/19 06:25:31;;;;;;;;;;;;;;;20.76;62.54;97241.56;626147;226;66970;-67
2023/05/19 06:27:59;;;;;;;;;;;;;;;20.76;62.58;97239.73;626123;226;65043;-62
2023/05/19 06:30:27;;;;;;;;;;;;;;;20.76;63.86;97239.73;626114;226;67665;-63
2023/05/19 06:32:57;;;;;;;;;;;;;;;20.75;61.65;97232.76;622479;226;48127;-62
2023/05/19 06:35:25;;;;;;;;;;;;;;;20.76;63.64;97247.73;626105;226;65750;-66
2023/05/19 06:37:54;;;;;;;;;;;;;;;20.76;62.42;97254.92;626056;226;67868;-66
2023/05/19 06:40:22;;;;;;;;;;;;;;;20.76;62.81;97244.23;626111;226;67026;-63
2023/05/19 06:42:50;;;;;;;;;;;;;;;20.74;62.09;97243.72;626083;226;65105;-62
2023/05/19 06:45:23;;;;;;;;;;;;;;;20.74;62.75;97241.85;625434;226;48092;-65
2023/05/19 06:47:51;;;;;;;;;;;;;;;20.74;62.00;97246.39;626092;226;67495;-65
2023/05/19 06:50:19;;;;;;;;;;;;;;;20.73;62.46;97245.56;626118;226;63689;-64
2023/05/19 06:52:48;;;;;;;;;;;;;;;20.74;63.04;97241.85;626055;226;44183;-64
2023/05/19 06:55:16;;;;;;;;;;;;;;;20.74;62.50;97249.86;626122;226;64630;-63
2023/05/19 06:57:44;;;;;;;;;;;;;;;20.75;63.65;97247.98;626106;226;65067;-64
2023/05/19 07:00:12;;;;;;;;;;;;;;;20.74;61.41;97246.39;625691;226;68009;-64
2023/05/19 07:02:41;;;;;;;;;;;;;;;20.75;61.64;97245.31;619173;226;67391;-64
2023/05/19 07:05:09;;;;;;;;;;;;;;;20.74;62.54;97241.05;611877;232;62918;-63
2023/05/19 07:07:36;;;;;;;;;;;;;;;20.74;62.68;97241.85;613695;226;67039;-63
2023/05/19 07:10:05;;;;;;;;;;;;;;;20.74;61.12;97243.72;611766;232;66864;-64
2023/05/19 07:12:33;;;;;;;;;;;;;;;20.75;63.38;97245.31;612785;228;65651;-63
2023/05/19 07:15:00;;;;;;;;;;;;;;;20.74;62.46;97241.05;615505;228;68912;-64
2023/05/19 07:17:28;;;;;;;;;;;;;;;20.74;63.13;97249.86;621198;228;66687;-63
2023/05/19 07:19:56;;;;;;;;;;;;;;;20.73;62.91;97234.88;621280;228;62903;-63
2023/05/19 07:22:23;;;;;;;;;;;;;;;20.73;62.58;97232.21;621205;228;66643;-61
2023/05/19 07:24:51;;;;;;;;;;;;;;;20.74;62.05;97238.38;621264;228;66748;-58
2023/05/19 07:27:19;;;;;;;;;;;;;;;20.74;63.57;97235.71;621215;228;62989;-59
2023/05/19 07:29:46;;;;;;;;;;;;;;;20.75;62.54;97231.96;621216;228;64874;-59
2023/05/19 07:32:14;;;;;;;;;;;;;;;20.74;62.53;97222.36;621234;228;64562;-58
2023/05/19 07:34:41;;;;;;;;;;;;;;;20.74;61.79;97225.03;621260;228;63152;-59
2023/05/19 07:37:09;;;;;;;;;;;;;;;20.74;63.68;97225.83;621164;228;66611;-59
2023/05/19 07:39:36;;;;;;;;;;;;;;;20.73;59.25;97228.74;621254;228;66598;-59
2023/05/19 07:42:04;;;;;;;;;;;;;;;20.74;60.92;97219.69;621270;228;62736;-59
2023/05/19 07:44:32;;;;;;;;;;;;;;;20.75;63.16;97221.28;621254;228;66964;-59
2023/05/19 07:47:00;;;;;;;;;;;;;;;20.75;62.82;97226.63;621287;228;66635;-59
2023/05/19 07:49:28;;;;;;;;;;;;;;;20.75;63.71;97219.41;621176;228;62892;-59
2023/05/19 07:51:56;;;;;;;;;;;;;;;20.76;63.82;97223.70;621202;228;66886;-59
2023/05/19 07:54:24;;;;;;;;;;;;;;;20.76;63.83;97218.36;621269;228;66631;-59
2023/05/19 07:56:51;;;;;;;;;;;;;;;20.76;63.86;97218.36;621289;228;64824;-59
2023/05/19 07:59:19;;;;;;;;;;;;;;;20.77;64.30;97219.16;621196;228;67740;-60
2023/05/19 08:01:46;;;;;;;;;;;;;;;20.77;63.72;97219.16;621241;228;66845;-59
2023/05/19 08:04:14;;;;;;;;;;;;;;;20.78;64.54;97220.75;621200;228;65023;-59
2023/05/19 08:06:43;;;;;;;;;;;;;;;20.77;63.20;97219.16;621251;228;64617;-59
2023/05/19 08:09:10;;;;;;;;;;;;;;;20.76;63.82;97215.69;621242;228;66369;-60
2023/05/19 08:11:38;;;;;;;;;;;;;;;20.76;64.89;97213.02;621216;228;64931;-58
2023/05/19 08:14:05;;;;;;;;;;;;;;;20.76;64.14;97220.20;621207;228;66994;-59
2023/05/19 08:16:33;;;;;;;;;;;;;;;20.76;64.10;97222.88;621239;228;64775;-66
2023/05/19 08:19:03;;;;;;;;;;;;;;;20.75;64.79;97224.75;621206;228;62786;-63
2023/05/19 08:21:33;;;;;;;;;;;;;;;20.76;64.96;97222.88;621218;228;66454;-62
2023/05/19 08:23:59;;;;;;;;;;;;;;;20.75;60.04;97222.08;621210;227;66651;-61
2023/05/19 08:26:26;;;;;;;;;;;;;;;20.78;63.47;97226.09;621222;228;65008;-61
2023/05/19 08:28:54;;;;;;;;;;;;;;;20.78;63.50;97231.44;621247;228;66760;-61
2023/05/19 08:31:21;;;;;;;;;;;;;;;20.78;63.93;97236.77;621196;228;66823;-61
2023/05/19 08:33:48;;;;;;;;;;;;;;;20.78;64.08;97239.45;621232;228;62771;-63
2023/05/19 08:36:16;;;;;;;;;;;;;;;20.78;63.89;97228.77;621250;228;64051;-63
2023/05/19 08:38:43;;;;;;;;;;;;;;;20.78;63.58;97231.44;621268;228;64263;-63
2023/05/19 08:41:11;;;;;;;;;;;;;;;20.78;63.87;97234.10;621164;228;63295;-65
2023/05/19 08:43:38;;;;;;;;;;;;;;;20.77;64.25;97232.51;621223;228;64965;-62
2023/05/19 08:46:06;;;;;;;;;;;;;;;20.78;63.89;97237.57;621262;228;64696;-62
2023/05/19 08:48:34;;;;;;;;;;;;;;;20.78;63.84;97242.12;621181;228;64857;-62
2023/05/19 08:51:06;;;;;;;;;;;;;;;20.78;63.82;97242.12;621210;228;47992;-63
2023/05/19 08:53:35;;;;;;;;;;;;;;;20.77;63.34;97245.86;621133;228;64689;-61
2023/05/19 08:56:10;;;;;;;;;;;;;;;20.77;64.18;97246.66;621182;228;62798;-65
2023/05/19 08:58:42;;;;;;;;;;;;;;;20.78;62.51;97247.45;621279;228;67632;-62
2023/05/19 09:01:17;;;;;;;;;;;;;;;20.78;63.04;97242.12;621174;228;66815;-66
2023/05/19 09:03:45;;;;;;;;;;;;;;;20.78;64.42;97242.12;621252;228;65107;-62
2023/05/19 09:06:13;;;;;;;;;;;;;;;20.77;62.94;97243.98;621235;228;67048;-61
2023/05/19 09:08:41;;;;;;;;;;;;;;;20.77;63.43;97240.52;621191;228;66665;-62
2023/05/19 09:11:09;;;;;;;;;;;;;;;20.78;64.06;97247.45;621148;228;62862;-66
2023/05/19 09:13:37;;;;;;;;;;;;;;;20.77;63.89;97240.52;621115;227;67881;-66
2023/05/19 09:16:05;;;;;;;;;;;;;;;20.76;62.52;97245.06;620588;228;66906;-62
2023/05/19 09:18:32;;;;;;;;;;;;;;;20.78;63.92;97236.77;620611;228;64965;-62
2023/05/19 09:21:01;;;;;;;;;;;;;;;20.77;64.51;97237.85;620662;228;66949;-64
2023/05/19 09:23:30;;;;;;;;;;;;;;;20.76;64.02;97231.71;620507;228;64730;-62
2023/05/19 09:25:59;;;;;;;;;;;;;;;20.75;63.42;97235.43;620539;228;62760;-64
2023/05/19 09:28:29;;;;;;;;;;;;;;;20.76;63.79;97236.23;620593;228;67580;-65
2023/05/19 09:31:03;;;;;;;;;;;;;;;20.75;63.20;97237.30;620492;228;67039;-62
2023/05/19 09:33:32;;;;;;;;;;;;;;;20.76;64.75;97233.56;620600;228;64945;-62
2023/05/19 09:36:00;;;;;;;;;;;;;;;20.75;65.04;97235.43;620584;228;66832;-63
2023/05/19 09:38:28;;;;;;;;;;;;;;;20.74;65.02;97230.37;620501;228;64736;-67
2023/05/19 09:40:56;;;;;;;;;;;;;;;20.75;64.83;97237.30;620550;228;64865;-63
2023/05/19 09:43:24;;;;;;;;;;;;;;;20.74;63.92;97233.84;620574;228;66921;-63
2023/05/19 09:45:56;;;;;;;;;;;;;;;20.75;64.92;97240.77;620549;228;66769;-62
2023/05/19 09:48:26;;;;;;;;;;;;;;;20.74;65.67;97238.38;619038;228;64869;-63
2023/05/19 09:50:54;;;;;;;;;;;;;;;20.74;65.35;97241.05;620584;228;66817;-63
2023/05/19 09:53:22;;;;;;;;;;;;;;;20.74;64.64;97243.72;620531;228;66651;-63
2023/05/19 09:55:50;;;;;;;;;;;;;;;20.73;64.50;97240.23;620532;228;65018;-61
2023/05/19 09:58:18;;;;;;;;;;;;;;;20.73;64.66;97236.76;620552;228;65178;-62
2023/05/19 10:00:47;;;;;;;;;;;;;;;20.73;63.61;97237.55;620484;228;64696;-61
2023/05/19 10:03:16;;;;;;;;;;;;;;;20.75;58.89;97232.76;620513;228;65044;-61
2023/05/19 10:05:44;;;;;;;;;;;;;;;20.77;63.08;97235.18;620546;228;66880;-60
2023/05/19 10:08:13;;;;;;;;;;;;;;;20.76;63.19;97229.05;620610;228;64652;-61
2023/05/19 10:10:40;;;;;;;;;;;;;;;20.76;62.70;97233.56;620240;228;65142;-61
2023/05/19 10:13:09;;;;;;;;;;;;;;;20.75;63.68;97221.28;615316;229;66520;-61
2023/05/19 10:15:37;;;;;;;;;;;;;;;20.75;64.52;97223.95;619900;229;66513;-61
2023/05/19 10:18:05;;;;;;;;;;;;;;;20.73;63.68;97218.86;619716;229;64891;-62
2023/05/19 10:20:33;;;;;;;;;;;;;;;20.74;63.51;97219.69;619853;229;66539;-60
2023/05/19 10:23:02;;;;;;;;;;;;;;;20.73;63.96;97216.19;619896;229;64245;-60
2023/05/19 10:25:33;;;;;;;;;;;;;;;20.74;63.96;97217.02;619888;229;46691;-61
2023/05/19 10:28:02;;;;;;;;;;;;;;;20.72;63.15;97211.13;619630;229;66556;-61
2023/05/19 10:30:31;;;;;;;;;;;;;;;20.74;63.85;97209.00;619758;229;64388;-61
2023/05/19 10:33:01;;;;;;;;;;;;;;;20.74;64.05;97209.00;619893;227;65137;-61
2023/05/19 10:35:37;;;;;;;;;;;;;;;20.73;64.01;97199.37;619827;229;48153;-61
2023/05/19 10:38:16;;;;;;;;;;;;;;;20.73;64.14;97194.03;619526;228;66538;-62
2023/05/19 10:40:45;;;;;;;;;;;;;;;20.73;63.32;97192.16;618610;228;64986;-62
2023/05/19 10:43:17;;;;;;;;;;;;;;;20.74;64.04;97203.66;619762;228;66943;-62
2023/05/19 10:45:45;;;;;;;;;;;;;;;20.73;63.67;97202.04;619871;228;67116;-62
2023/05/19 10:48:16;;;;;;;;;;;;;;;20.73;63.49;97196.70;620005;229;63018;-62
2023/05/19 10:50:45;;;;;;;;;;;;;;;20.73;64.01;97196.70;619888;229;67045;-62
2023/05/19 10:53:18;;;;;;;;;;;;;;;20.72;62.89;97189.77;620066;229;64897;-61
2023/05/19 10:55:49;;;;;;;;;;;;;;;20.73;63.50;97194.03;620065;229;63105;-62
2023/05/19 10:58:18;;;;;;;;;;;;;;;20.71;62.00;97194.31;620036;228;66966;-61
2023/05/19 11:00:45;;;;;;;;;;;;;;;20.73;61.93;97199.37;618934;228;64796;-61
2023/05/19 11:03:22;;;;;;;;;;;;;;;20.73;63.46;97191.36;619955;229;64905;-63
2023/05/19 11:05:56;;;;;;;;;;;;;;;20.72;63.58;97190.56;620206;229;47886;-62
2023/05/19 11:08:33;;;;;;;;;;;;;;;20.73;63.57;97183.34;620166;229;66861;-62
2023/05/19 11:11:16;;;;;;;;;;;;;;;20.73;63.19;97188.69;619793;228;62970;-62
2023/05/19 11:13:45;;;;;;;;;;;;;;;20.72;62.62;97184.42;624371;225;64738;-61
2023/05/19 11:16:12;;;;;;;;;;;;;;;20.73;64.03;97176.13;623920;225;65474;-61
2023/05/19 11:18:40;;;;;;;;;;;;;;;20.74;64.96;97192.98;625338;225;64007;-61
2023/05/19 11:21:08;;;;;;;;;;;;;;;20.72;63.20;97189.77;626715;225;66720;-61
2023/05/19 11:23:43;;;;;;;;;;;;;;;20.73;64.56;97186.02;628931;225;66730;-61
2023/05/19 11:26:07;;;;;;;;;;;;;;;20.73;64.62;97183.34;628753;225;65052;-62
2023/05/19 11:28:36;;;;;;;;;;;;;;;20.73;64.22;97188.69;629047;225;64720;-62
2023/05/19 11:31:06;;;;;;;;;;;;;;;20.72;63.41;97185.22;628963;225;64651;-61
2023/05/19 11:33:33;;;;;;;;;;;;;;;20.72;64.34;97185.22;628986;225;65083;-62
2023/05/19 11:36:04;;;;;;;;;;;;;;;20.73;64.93;97186.02;628944;225;64596;-62
2023/05/19 11:38:32;;;;;;;;;;;;;;;20.72;64.15;97187.89;628915;225;67029;-61
2023/05/19 11:41:00;;;;;;;;;;;;;;;20.73;64.14;97180.67;628966;225;64935;-61
2023/05/19 11:43:27;;;;;;;;;;;;;;;20.72;64.48;97169.19;626754;225;64843;-62
2023/05/19 11:45:55;;;;;;;;;;;;;;;20.73;63.75;97159.31;621670;228;64921;-61
2023/05/19 11:48:22;;;;;;;;;;;;;;;20.71;63.68;97151.58;621861;228;62974;-60
2023/05/19 11:50:52;;;;;;;;;;;;;;;20.72;64.24;97158.52;621798;228;68191;-62
2023/05/19 11:53:20;;;;;;;;;;;;;;;20.73;63.94;97161.98;621709;228;66762;-64
2023/05/19 11:55:47;;;;;;;;;;;;;;;20.72;64.23;97158.52;621799;228;62735;-62
2023/05/19 11:58:15;;;;;;;;;;;;;;;20.75;59.33;97151.84;621793;228;66816;-61
2023/05/19 12:00:44;;;;;;;;;;;;;;;20.75;62.50;97151.84;621668;228;67537;-60
2023/05/19 12:03:12;;;;;;;;;;;;;;;20.75;62.75;97162.52;621831;228;65061;-61
2023/05/19 12:05:41;;;;;;;;;;;;;;;20.73;63.26;97161.98;621807;228;67196;-62
2023/05/19 12:08:08;;;;;;;;;;;;;;;20.73;63.96;97153.97;617879;228;67001;-60
2023/05/19 12:10:36;;;;;;;;;;;;;;;20.73;63.75;97153.97;621713;228;64870;-62
2023/05/19 12:13:08;;;;;;;;;;;;;;;20.73;64.50;97151.30;620154;228;67358;-61
2023/05/19 12:15:35;;;;;;;;;;;;;;;20.71;63.11;97148.11;617159;230;66835;-60
2023/05/19 12:18:04;;;;;;;;;;;;;;;20.71;63.96;97153.45;617137;230;65254;-61
2023/05/19 12:20:34;;;;;;;;;;;;;;;20.71;64.00;97143.56;617148;230;64560;-62
2023/05/19 12:23:03;;;;;;;;;;;;;;;20.71;64.31;97150.78;617201;230;65018;-61
2023/05/19 12:25:30;;;;;;;;;;;;;;;20.71;64.57;97145.44;617130;230;65044;-61
2023/05/19 12:28:06;;;;;;;;;;;;;;;20.71;64.67;97148.11;617234;230;67410;-61
2023/05/19 12:30:32;;;;;;;;;;;;;;;20.72;64.35;97155.05;617001;230;66949;-61
2023/05/19 12:33:01;;;;;;;;;;;;;;;20.69;63.76;97153.70;617156;230;62854;-61
2023/05/19 12:35:32;;;;;;;;;;;;;;;20.71;64.44;97153.45;617108;230;66933;-62
2023/05/19 12:38:01;;;;;;;;;;;;;;;20.70;64.27;97149.16;617114;230;67702;-61
2023/05/19 12:40:29;;;;;;;;;;;;;;;20.69;64.41;97148.36;616926;230;65118;-61
2023/05/19 12:42:57;;;;;;;;;;;;;;;20.69;62.95;97152.91;617216;230;67032;-61
2023/05/19 12:45:26;;;;;;;;;;;;;;;20.69;63.25;97144.90;617038;230;64920;-60
2023/05/19 12:47:54;;;;;;;;;;;;;;;20.69;63.85;97142.23;616952;230;64899;-61
2023/05/19 12:50:23;;;;;;;;;;;;;;;20.68;63.90;97138.77;617070;227;67080;-61
2023/05/19 12:52:51;;;;;;;;;;;;;;;20.69;64.31;97134.22;617048;230;67796;-61
2023/05/19 12:55:19;;;;;;;;;;;;;;;20.69;63.87;97140.35;617204;230;65061;-61